Terminal Aerodrome Forecast
Issued by NWS Jacksonville, FL

Home | Current Version | Previous Version | Text Only | Print | Product List | Glossary On
Versions: 1 2 3 4 5 6 7 8 9 10 11 12 13 14 15 16 17 18 19 20 21 22 23 24 25 26 27 28 29 30
081
FTUS42 KJAX 231120
TAFSSI
TAF
KSSI 231120Z 2312/2412 22011KT P6SM FEW050 BKN150
     FM231500 23013G23KT 6SM SHRA VCTS SCT040CB BKN100
     FM232100 23011KT 5SM SHRA VCTS BKN040CB PROB30 2321/2402
      VRB20G30KT 2SM +TSRA
     FM240800 22012KT 3SM SHRA VCTS BKN035CB OVC100=

USA.gov is the U.S. government's official web portal to all federal, state and local government web resources and services.